• Join FlightAware (Why Join?)
  • Login
  • US Flag 
02:42AM EST


 

Airport Tracker/Info


-or-


 

Live Flight TrackerFlight Track Log ✈ B-2086 ✈ 19-Apr-2013 ✈ ZSSS / SHA - ZBAA / PEK

Flight Track Log - Related Links

Times and Time Zones

All times are in EDT time to prevent confusion due to time zone crossing. See the B-2086 flight status page for this flight to view local times or setup timezone preferences in your user account.

Time Position Orientation Groundspeed Altitude Reporting Facility
EDT Latitude Longitude Course Direction KTS MPH feet Rate Location/Type
09:40PM 31.2290 121.3300 356° North 163 188 2,200  Level FlightAware
09:41PM 31.2520 121.3290 358° North 163 188 3,400 1,260 Climbing FlightAware
09:42PM 31.2850 121.3280 359° North 195 224 3,700 1,680 Climbing FlightAware
09:42PM 31.3160 121.2890 313° West 267 307 5,400 2,700 Climbing FlightAware
09:43PM 31.3370 121.2610 311° West 273 314 6,200 2,100 Climbing FlightAware
09:43PM 31.3520 121.2410 311° West 297 342 7,000 2,100 Climbing FlightAware
09:44PM 31.4350 121.1360 313° West 334 384 9,700 1,380 Climbing FlightAware
09:45PM 31.4700 121.0970 316° Northwest 341 392 9,700 720 Level FlightAware
09:46PM 31.5390 121.0540 332° Northwest 341 392 10,700 2,820 Climbing FlightAware
09:46PM 31.5630 121.0570 North 334 384 12,300 2,700 Climbing FlightAware
09:47PM 31.6310 121.0200 335° Northwest 338 389 13,400 720 Climbing FlightAware
09:47PM 31.6790 120.9940 335° Northwest 338 389 13,400  Level FlightAware
09:48PM 31.7280 120.9670 335° Northwest 338 389 13,400  Level FlightAware
09:51PM 31.9275 120.8732 338° Northwest  Level Estimated
09:52PM 32.0037 120.8372 338° Northwest  Level Estimated
09:53PM 32.0799 120.8011 338° Northwest  Level Estimated
09:54PM 32.1561 120.7651 338° Northwest  Level Estimated
09:55PM 32.2322 120.7289 338° Northwest  Level Estimated
09:56PM 32.3084 120.6927 338° Northwest  Level Estimated
09:57PM 32.3846 120.6564 338° Northwest  Level Estimated
09:58PM 32.4607 120.6201 338° Northwest  Level Estimated
09:59PM 32.5368 120.5837 338° Northwest  Level Estimated
10:00PM 32.6129 120.5472 338° Northwest  Level Estimated
10:01PM 32.6891 120.5107 338° Northwest  Level Estimated
10:02PM 32.7652 120.4741 338° Northwest  Level Estimated
10:03PM 32.8413 120.4375 338° Northwest  Level Estimated
10:04PM 32.9173 120.4008 338° Northwest  Level Estimated
10:05PM 32.9934 120.3640 338° Northwest  Level Estimated
10:06PM 33.0695 120.3271 338° Northwest  Level Estimated
10:07PM 33.1455 120.2903 338° Northwest  Level Estimated
10:08PM 33.2215 120.2533 338° Northwest  Level Estimated
10:09PM 33.2976 120.2163 338° Northwest  Level Estimated
10:10PM 33.3736 120.1792 338° Northwest  Level Estimated
10:11PM 33.4496 120.1420 338° Northwest  Level Estimated
10:12PM 33.5256 120.1048 338° Northwest  Level Estimated
10:13PM 33.6016 120.0675 338° Northwest  Level Estimated
10:14PM 33.6775 120.0302 338° Northwest  Level Estimated
10:15PM 33.7535 119.9927 338° Northwest  Level Estimated
10:16PM 33.8294 119.9552 338° Northwest  Level Estimated
10:17PM 33.9054 119.9177 338° Northwest  Level Estimated
10:18PM 33.9813 119.8801 338° Northwest  Level Estimated
10:19PM 34.0572 119.8424 338° Northwest  Level Estimated
10:20PM 34.1331 119.8046 338° Northwest  Level Estimated
10:21PM 34.2090 119.7668 338° Northwest  Level Estimated
10:22PM 34.2849 119.7289 338° Northwest  Level Estimated
10:23PM 34.3608 119.6909 338° Northwest  Level Estimated
10:24PM 34.4366 119.6529 338° Northwest  Level Estimated
10:25PM 34.5125 119.6148 338° Northwest  Level Estimated
10:26PM 34.5883 119.5767 337° Northwest  Level Estimated
10:27PM 34.6641 119.5384 337° Northwest  Level Estimated
10:28PM 34.7399 119.5001 337° Northwest  Level Estimated
10:29PM 34.8157 119.4617 337° Northwest  Level Estimated
10:30PM 34.8915 119.4233 337° Northwest  Level Estimated
10:31PM 34.9673 119.3848 337° Northwest  Level Estimated
10:32PM 35.0430 119.3462 337° Northwest  Level Estimated
10:33PM 35.1188 119.3075 337° Northwest  Level Estimated
10:34PM 35.1945 119.2688 337° Northwest  Level Estimated
10:35PM 35.2702 119.2300 337° Northwest  Level Estimated
10:36PM 35.3460 119.1911 337° Northwest  Level Estimated
10:37PM 35.4217 119.1521 337° Northwest  Level Estimated
10:38PM 35.4973 119.1131 337° Northwest  Level Estimated
10:39PM 35.5730 119.0740 337° Northwest  Level Estimated
10:40PM 35.6487 119.0348 337° Northwest  Level Estimated
10:41PM 35.7243 118.9956 337° Northwest  Level Estimated
10:42PM 35.8000 118.9563 337° Northwest  Level Estimated
10:43PM 35.8756 118.9169 337° Northwest  Level Estimated
10:44PM 35.9512 118.8774 337° Northwest  Level Estimated
10:45PM 36.0268 118.8379 337° Northwest  Level Estimated
10:46PM 36.1024 118.7982 337° Northwest  Level Estimated
10:47PM 36.1780 118.7585 337° Northwest  Level Estimated
10:48PM 36.2535 118.7188 337° Northwest  Level Estimated
10:49PM 36.3290 118.6789 337° Northwest  Level Estimated
10:50PM 36.4046 118.6390 337° Northwest  Level Estimated
10:51PM 36.4801 118.5990 337° Northwest  Level Estimated
10:52PM 36.5556 118.5589 337° Northwest  Level Estimated
10:53PM 36.6311 118.5187 337° Northwest  Level Estimated
10:54PM 36.7066 118.4785 337° Northwest  Level Estimated
10:55PM 36.7820 118.4381 337° Northwest  Level Estimated
10:56PM 36.8575 118.3978 337° Northwest  Level Estimated
10:57PM 36.9329 118.3573 337° Northwest  Level Estimated
10:58PM 37.0083 118.3167 337° Northwest  Level Estimated
10:59PM 37.0838 118.2761 337° Northwest  Level Estimated
11:00PM 37.1591 118.2354 337° Northwest  Level Estimated
11:01PM 37.2345 118.1945 337° Northwest  Level Estimated
11:02PM 37.3099 118.1537 337° Northwest  Level Estimated
11:03PM 37.3853 118.1127 337° Northwest  Level Estimated
11:04PM 37.4606 118.0716 337° Northwest  Level Estimated
11:05PM 37.5359 118.0305 337° Northwest  Level Estimated
11:06PM 37.6112 117.9893 337° Northwest  Level Estimated
11:07PM 37.6865 117.9480 337° Northwest  Level Estimated
11:08PM 37.7618 117.9066 337° Northwest  Level Estimated
11:09PM 37.8371 117.8651 336° Northwest  Level Estimated
11:10PM 37.9123 117.8236 336° Northwest  Level Estimated
11:11PM 37.9876 117.7820 336° Northwest  Level Estimated
11:12PM 38.0628 117.7402 336° Northwest  Level Estimated
11:13PM 38.1380 117.6984 336° Northwest  Level Estimated
11:14PM 38.2132 117.6565 336° Northwest  Level Estimated
11:15PM 38.2884 117.6145 336° Northwest  Level Estimated
11:16PM 38.3635 117.5725 336° Northwest  Level Estimated
11:17PM 38.4387 117.5303 336° Northwest  Level Estimated
11:18PM 38.5138 117.4881 336° Northwest  Level Estimated
11:19PM 38.5889 117.4457 336° Northwest  Level Estimated
11:20PM 38.6640 117.4033 336° Northwest  Level Estimated
11:21PM 38.7391 117.3608 336° Northwest  Level Estimated
11:22PM 38.8142 117.3182 336° Northwest  Level Estimated
11:23PM 38.8892 117.2755 336° Northwest  Level Estimated
11:24PM 38.9643 117.2327 336° Northwest  Level Estimated
11:25PM 39.0393 117.1899 336° Northwest  Level Estimated
11:26PM 39.1143 117.1469 336° Northwest  Level Estimated
11:27PM 39.1893 117.1039 336° Northwest  Level Estimated
11:28PM 39.2643 117.0607 336° Northwest  Level Estimated
11:29PM 39.3392 117.0175 336° Northwest  Level Estimated
11:30PM 39.4142 116.9741 336° Northwest  Level Estimated
11:31PM 39.4891 116.9307 336° Northwest  Level Estimated
11:32PM 39.5640 116.8872 336° Northwest  Level Estimated
11:33PM 39.6389 116.8436 336° Northwest  Level Estimated